sensor_id;sensor_type;location;lat;lon;timestamp;pressure;altitude;pressure_sealevel;temperature;humidity
67980;BME280;54760;47.490;19.030;2024-02-14T00:00:34;100552.56;;;6.58;58.92
67980;BME280;54760;47.490;19.030;2024-02-14T00:03:00;100553.00;;;6.67;58.71
67980;BME280;54760;47.490;19.030;2024-02-14T00:05:25;100558.34;;;6.53;58.64
67980;BME280;54760;47.490;19.030;2024-02-14T00:07:51;100555.34;;;6.72;58.25
67980;BME280;54760;47.490;19.030;2024-02-14T00:10:16;100550.69;;;6.69;58.35
67980;BME280;54760;47.490;19.030;2024-02-14T00:12:42;100556.13;;;6.69;58.39
67980;BME280;54760;47.490;19.030;2024-02-14T00:15:08;100556.84;;;6.63;58.70
67980;BME280;54760;47.490;19.030;2024-02-14T00:17:34;100559.56;;;6.59;58.99
67980;BME280;54760;47.490;19.030;2024-02-14T00:20:02;100567.75;;;6.66;58.72
67980;BME280;54760;47.490;19.030;2024-02-14T00:22:29;100566.91;;;6.55;58.79
67980;BME280;54760;47.490;19.030;2024-02-14T00:24:54;100570.09;;;6.64;58.39
67980;BME280;54760;47.490;19.030;2024-02-14T00:27:19;100570.13;;;6.75;58.11
67980;BME280;54760;47.490;19.030;2024-02-14T00:29:45;100569.66;;;6.59;58.53
67980;BME280;54760;47.490;19.030;2024-02-14T00:32:12;100568.53;;;6.63;58.47
67980;BME280;54760;47.490;19.030;2024-02-14T00:34:38;100570.75;;;6.50;58.77
67980;BME280;54760;47.490;19.030;2024-02-14T00:37:03;100571.41;;;6.30;59.55
67980;BME280;54760;47.490;19.030;2024-02-14T00:39:29;100571.06;;;6.35;59.52
67980;BME280;54760;47.490;19.030;2024-02-14T00:41:54;100579.59;;;6.37;59.22
67980;BME280;54760;47.490;19.030;2024-02-14T00:44:21;100580.75;;;6.36;59.34
67980;BME280;54760;47.490;19.030;2024-02-14T00:46:46;100578.53;;;6.48;59.27
67980;BME280;54760;47.490;19.030;2024-02-14T00:49:13;100579.75;;;6.58;59.01
67980;BME280;54760;47.490;19.030;2024-02-14T00:51:38;100583.91;;;6.41;59.19
67980;BME280;54760;47.490;19.030;2024-02-14T00:54:05;100583.91;;;6.41;58.88
67980;BME280;54760;47.490;19.030;2024-02-14T00:56:30;100587.03;;;6.40;59.17
67980;BME280;54760;47.490;19.030;2024-02-14T00:58:55;100587.38;;;6.35;59.50
67980;BME280;54760;47.490;19.030;2024-02-14T01:01:22;100589.22;;;6.24;59.92
67980;BME280;54760;47.490;19.030;2024-02-14T01:03:47;100584.75;;;6.49;58.93
67980;BME280;54760;47.490;19.030;2024-02-14T01:06:13;100595.22;;;6.47;58.96
67980;BME280;54760;47.490;19.030;2024-02-14T01:08:39;100587.38;;;6.35;59.42
67980;BME280;54760;47.490;19.030;2024-02-14T01:11:06;100588.63;;;6.48;59.43
67980;BME280;54760;47.490;19.030;2024-02-14T01:13:32;100589.75;;;6.40;59.82
67980;BME280;54760;47.490;19.030;2024-02-14T01:15:57;100593.06;;;6.16;60.80
67980;BME280;54760;47.490;19.030;2024-02-14T01:18:22;100598.41;;;6.05;61.32
67980;BME280;54760;47.490;19.030;2024-02-14T01:20:48;100602.81;;;6.24;60.58
67980;BME280;54760;47.490;19.030;2024-02-14T01:23:13;100595.06;;;6.26;60.55
67980;BME280;54760;47.490;19.030;2024-02-14T01:25:39;100595.47;;;6.28;60.39
67980;BME280;54760;47.490;19.030;2024-02-14T01:28:04;100595.53;;;6.35;60.32
67980;BME280;54760;47.490;19.030;2024-02-14T01:30:30;100595.50;;;5.87;61.75
67980;BME280;54760;47.490;19.030;2024-02-14T01:32:55;100600.59;;;5.92;61.62
67980;BME280;54760;47.490;19.030;2024-02-14T01:35:21;100601.41;;;5.96;61.82
67980;BME280;54760;47.490;19.030;2024-02-14T01:37:46;100605.34;;;6.02;61.64
67980;BME280;54760;47.490;19.030;2024-02-14T01:40:12;100599.22;;;6.13;61.39
67980;BME280;54760;47.490;19.030;2024-02-14T01:42:37;100603.66;;;5.87;62.39
67980;BME280;54760;47.490;19.030;2024-02-14T01:45:03;100594.28;;;5.81;62.01
67980;BME280;54760;47.490;19.030;2024-02-14T01:47:29;100598.88;;;5.77;61.90
67980;BME280;54760;47.490;19.030;2024-02-14T01:49:58;100602.16;;;5.93;61.30
67980;BME280;54760;47.490;19.030;2024-02-14T01:52:24;100603.94;;;5.79;61.61
67980;BME280;54760;47.490;19.030;2024-02-14T01:54:49;100607.53;;;5.86;61.46
67980;BME280;54760;47.490;19.030;2024-02-14T01:57:16;100600.88;;;5.80;61.45
67980;BME280;54760;47.490;19.030;2024-02-14T01:59:41;100608.12;;;5.69;61.94
67980;BME280;54760;47.490;19.030;2024-02-14T02:02:06;100610.59;;;5.81;61.33
67980;BME280;54760;47.490;19.030;2024-02-14T02:04:33;100614.09;;;5.85;60.65
67980;BME280;54760;47.490;19.030;2024-02-14T02:06:59;100616.09;;;5.88;59.97
67980;BME280;54760;47.490;19.030;2024-02-14T02:09:24;100610.66;;;5.88;59.81
67980;BME280;54760;47.490;19.030;2024-02-14T02:11:50;100624.66;;;5.90;59.10
67980;BME280;54760;47.490;19.030;2024-02-14T02:14:16;100619.81;;;5.77;59.60
67980;BME280;54760;47.490;19.030;2024-02-14T02:16:42;100617.50;;;5.75;60.05
67980;BME280;54760;47.490;19.030;2024-02-14T02:19:08;100620.56;;;5.70;60.41
67980;BME280;54760;47.490;19.030;2024-02-14T02:21:38;100617.84;;;5.70;60.41
67980;BME280;54760;47.490;19.030;2024-02-14T02:24:04;100614.44;;;5.80;59.75
67980;BME280;54760;47.490;19.030;2024-02-14T02:26:30;100618.03;;;5.51;60.41
67980;BME280;54760;47.490;19.030;2024-02-14T02:28:55;100611.09;;;5.90;59.49
67980;BME280;54760;47.490;19.030;2024-02-14T02:31:21;100609.87;;;5.88;59.37
67980;BME280;54760;47.490;19.030;2024-02-14T02:33:46;100623.16;;;5.96;58.77
67980;BME280;54760;47.490;19.030;2024-02-14T02:36:12;100618.34;;;6.20;58.04
67980;BME280;54760;47.490;19.030;2024-02-14T02:38:37;100619.59;;;6.33;57.35
67980;BME280;54760;47.490;19.030;2024-02-14T02:41:04;100616.22;;;6.02;58.36
67980;BME280;54760;47.490;19.030;2024-02-14T02:43:32;100617.31;;;5.91;58.52
67980;BME280;54760;47.490;19.030;2024-02-14T02:45:58;100615.50;;;5.72;59.57
67980;BME280;54760;47.490;19.030;2024-02-14T02:48:23;100629.34;;;5.93;59.47
67980;BME280;54760;47.490;19.030;2024-02-14T02:50:49;100630.34;;;6.15;57.77
67980;BME280;54760;47.490;19.030;2024-02-14T02:53:16;100635.53;;;5.90;58.46
67980;BME280;54760;47.490;19.030;2024-02-14T02:55:41;100643.69;;;5.90;58.46
67980;BME280;54760;47.490;19.030;2024-02-14T02:58:07;100635.16;;;5.92;58.88
67980;BME280;54760;47.490;19.030;2024-02-14T03:00:33;100641.78;;;5.94;58.88
67980;BME280;54760;47.490;19.030;2024-02-14T03:02:58;100640.34;;;6.07;58.20
67980;BME280;54760;47.490;19.030;2024-02-14T03:05:24;100643.19;;;6.22;58.16
67980;BME280;54760;47.490;19.030;2024-02-14T03:07:49;100647.03;;;6.17;57.71
67980;BME280;54760;47.490;19.030;2024-02-14T03:10:16;100654.78;;;5.78;58.50
67980;BME280;54760;47.490;19.030;2024-02-14T03:12:49;100662.03;;;6.00;58.28
67980;BME280;54760;47.490;19.030;2024-02-14T03:15:15;100659.72;;;6.02;58.21
67980;BME280;54760;47.490;19.030;2024-02-14T03:17:41;100663.09;;;5.59;59.60
67980;BME280;54760;47.490;19.030;2024-02-14T03:20:08;100666.16;;;5.54;59.91
67980;BME280;54760;47.490;19.030;2024-02-14T03:22:43;100669.59;;;5.84;58.95
67980;BME280;54760;47.490;19.030;2024-02-14T03:25:18;100670.59;;;5.69;59.05
67980;BME280;54760;47.490;19.030;2024-02-14T03:27:44;100671.94;;;5.52;59.88
67980;BME280;54760;47.490;19.030;2024-02-14T03:30:16;100675.59;;;5.67;59.88
67980;BME280;54760;47.490;19.030;2024-02-14T03:32:43;100674.78;;;5.63;59.93
67980;BME280;54760;47.490;19.030;2024-02-14T03:35:08;100682.38;;;5.47;60.80
67980;BME280;54760;47.490;19.030;2024-02-14T03:37:37;100690.09;;;5.45;61.07
67980;BME280;54760;47.490;19.030;2024-02-14T03:40:05;100682.94;;;5.63;60.46
67980;BME280;54760;47.490;19.030;2024-02-14T03:42:30;100691.97;;;5.71;60.01
67980;BME280;54760;47.490;19.030;2024-02-14T03:44:56;100683.53;;;5.83;59.52
67980;BME280;54760;47.490;19.030;2024-02-14T03:47:28;100698.97;;;5.72;60.09
67980;BME280;54760;47.490;19.030;2024-02-14T03:49:54;100703.53;;;5.64;60.43
67980;BME280;54760;47.490;19.030;2024-02-14T03:52:19;100698.59;;;5.77;60.12
67980;BME280;54760;47.490;19.030;2024-02-14T03:54:46;100704.28;;;5.61;60.74
67980;BME280;54760;47.490;19.030;2024-02-14T03:57:11;100703.53;;;5.64;60.75
67980;BME280;54760;47.490;19.030;2024-02-14T03:59:38;100713.47;;;5.53;61.33
67980;BME280;54760;47.490;19.030;2024-02-14T04:02:06;100717.34;;;5.52;61.40
67980;BME280;54760;47.490;19.030;2024-02-14T04:04:36;100721.81;;;5.37;61.87
67980;BME280;54760;47.490;19.030;2024-02-14T04:07:02;100724.38;;;5.56;61.61
67980;BME280;54760;47.490;19.030;2024-02-14T04:09:28;100723.59;;;5.56;61.93
67980;BME280;54760;47.490;19.030;2024-02-14T04:11:53;100724.59;;;5.74;61.39
67980;BME280;54760;47.490;19.030;2024-02-14T04:14:18;100729.84;;;5.60;61.87
67980;BME280;54760;47.490;19.030;2024-02-14T04:16:44;100733.06;;;5.69;61.74
67980;BME280;54760;47.490;19.030;2024-02-14T04:19:09;100729.88;;;5.93;60.92
67980;BME280;54760;47.490;19.030;2024-02-14T04:21:37;100739.59;;;5.91;61.10
67980;BME280;54760;47.490;19.030;2024-02-14T04:24:03;100741.00;;;5.81;61.25
67980;BME280;54760;47.490;19.030;2024-02-14T04:26:28;100744.50;;;5.52;62.40
67980;BME280;54760;47.490;19.030;2024-02-14T04:28:54;100751.91;;;5.55;62.65
67980;BME280;54760;47.490;19.030;2024-02-14T04:31:19;100756.69;;;5.65;62.62
67980;BME280;54760;47.490;19.030;2024-02-14T04:33:45;100757.41;;;5.62;63.14
67980;BME280;54760;47.490;19.030;2024-02-14T04:36:17;100762.63;;;5.74;62.78
67980;BME280;54760;47.490;19.030;2024-02-14T04:38:43;100757.94;;;5.71;62.59
67980;BME280;54760;47.490;19.030;2024-02-14T04:41:09;100759.69;;;5.86;62.30
67980;BME280;54760;47.490;19.030;2024-02-14T04:43:35;100763.19;;;5.57;63.08
67980;BME280;54760;47.490;19.030;2024-02-14T04:46:01;100766.63;;;5.54;63.77
67980;BME280;54760;47.490;19.030;2024-02-14T04:48:26;100761.78;;;5.66;63.42
67980;BME280;54760;47.490;19.030;2024-02-14T04:50:53;100770.56;;;5.56;63.98
67980;BME280;54760;47.490;19.030;2024-02-14T04:53:18;100774.81;;;5.28;64.94
67980;BME280;54760;47.490;19.030;2024-02-14T04:55:45;100774.44;;;5.29;65.45
67980;BME280;54760;47.490;19.030;2024-02-14T04:58:10;100773.88;;;5.16;66.00
67980;BME280;54760;47.490;19.030;2024-02-14T05:00:36;100775.87;;;5.23;66.18
67980;BME280;54760;47.490;19.030;2024-02-14T05:03:01;100780.31;;;5.08;66.93
67980;BME280;54760;47.490;19.030;2024-02-14T05:05:27;100782.09;;;4.97;66.89
67980;BME280;54760;47.490;19.030;2024-02-14T05:07:53;100782.31;;;5.11;66.86
67980;BME280;54760;47.490;19.030;2024-02-14T05:10:19;100777.28;;;5.13;66.58
67980;BME280;54760;47.490;19.030;2024-02-14T05:12:44;100785.75;;;5.08;66.59
67980;BME280;54760;47.490;19.030;2024-02-14T05:15:10;100785.44;;;5.13;66.48
67980;BME280;54760;47.490;19.030;2024-02-14T05:17:37;100798.28;;;5.16;66.63
67980;BME280;54760;47.490;19.030;2024-02-14T05:20:04;100790.50;;;5.15;66.30
67980;BME280;54760;47.490;19.030;2024-02-14T05:22:35;100797.16;;;5.17;66.51
67980;BME280;54760;47.490;19.030;2024-02-14T05:25:01;100795.16;;;5.14;66.71
67980;BME280;54760;47.490;19.030;2024-02-14T05:27:26;100794.75;;;5.39;65.97
67980;BME280;54760;47.490;19.030;2024-02-14T05:29:52;100795.16;;;5.41;65.72
67980;BME280;54760;47.490;19.030;2024-02-14T05:32:17;100805.91;;;5.07;66.75
67980;BME280;54760;47.490;19.030;2024-02-14T05:34:42;100801.50;;;4.99;66.70
67980;BME280;54760;47.490;19.030;2024-02-14T05:37:08;100814.22;;;4.50;68.67
67980;BME280;54760;47.490;19.030;2024-02-14T05:39:33;100819.47;;;4.85;67.18
67980;BME280;54760;47.490;19.030;2024-02-14T05:41:59;100821.69;;;4.33;69.68
67980;BME280;54760;47.490;19.030;2024-02-14T05:44:24;100828.94;;;4.71;68.19
67980;BME280;54760;47.490;19.030;2024-02-14T05:46:52;100821.78;;;4.83;67.47
67980;BME280;54760;47.490;19.030;2024-02-14T05:49:18;100824.25;;;4.91;67.35
67980;BME280;54760;47.490;19.030;2024-02-14T05:51:43;100828.88;;;4.91;66.80
67980;BME280;54760;47.490;19.030;2024-02-14T05:54:09;100833.78;;;4.59;68.56
67980;BME280;54760;47.490;19.030;2024-02-14T05:56:34;100826.34;;;5.01;66.85
67980;BME280;54760;47.490;19.030;2024-02-14T05:58:59;100827.06;;;4.75;67.51
67980;BME280;54760;47.490;19.030;2024-02-14T06:01:25;100836.59;;;4.66;67.70
67980;BME280;54760;47.490;19.030;2024-02-14T06:03:50;100841.13;;;4.81;67.57
67980;BME280;54760;47.490;19.030;2024-02-14T06:06:16;100843.00;;;5.00;66.69
67980;BME280;54760;47.490;19.030;2024-02-14T06:08:41;100841.31;;;4.69;67.75
67980;BME280;54760;47.490;19.030;2024-02-14T06:11:06;100847.16;;;4.71;67.87
67980;BME280;54760;47.490;19.030;2024-02-14T06:13:33;100854.25;;;4.79;67.75
67980;BME280;54760;47.490;19.030;2024-02-14T06:15:58;100854.81;;;4.88;67.62
67980;BME280;54760;47.490;19.030;2024-02-14T06:18:24;100851.09;;;4.73;68.24
67980;BME280;54760;47.490;19.030;2024-02-14T06:20:49;100860.56;;;4.83;67.85
67980;BME280;54760;47.490;19.030;2024-02-14T06:23:15;100853.00;;;4.96;67.56
67980;BME280;54760;47.490;19.030;2024-02-14T06:25:40;100855.13;;;5.06;67.26
67980;BME280;54760;47.490;19.030;2024-02-14T06:28:06;100859.75;;;4.83;68.10
67980;BME280;54760;47.490;19.030;2024-02-14T06:30:31;100856.72;;;4.65;68.48
67980;BME280;54760;47.490;19.030;2024-02-14T06:32:57;100855.00;;;4.76;68.74
67980;BME280;54760;47.490;19.030;2024-02-14T06:35:26;100865.09;;;4.79;68.50
67980;BME280;54760;47.490;19.030;2024-02-14T06:37:51;100858.62;;;5.06;67.52
67980;BME280;54760;47.490;19.030;2024-02-14T06:40:16;100867.06;;;5.01;67.79
67980;BME280;54760;47.490;19.030;2024-02-14T06:42:43;100871.84;;;4.66;68.01
67980;BME280;54760;47.490;19.030;2024-02-14T06:45:08;100866.94;;;4.94;68.19
67980;BME280;54760;47.490;19.030;2024-02-14T06:47:34;100861.31;;;5.06;67.63
67980;BME280;54760;47.490;19.030;2024-02-14T06:49:59;100868.56;;;4.99;67.93
67980;BME280;54760;47.490;19.030;2024-02-14T06:52:24;100868.78;;;4.90;67.78
67980;BME280;54760;47.490;19.030;2024-02-14T06:54:50;100878.25;;;5.00;68.14
67980;BME280;54760;47.490;19.030;2024-02-14T06:57:16;100877.31;;;4.27;70.54
67980;BME280;54760;47.490;19.030;2024-02-14T06:59:41;100875.72;;;4.26;70.64
67980;BME280;54760;47.490;19.030;2024-02-14T07:02:07;100880.44;;;4.49;70.37
67980;BME280;54760;47.490;19.030;2024-02-14T07:04:32;100877.31;;;5.11;68.02
67980;BME280;54760;47.490;19.030;2024-02-14T07:06:58;100878.03;;;5.08;68.14
67980;BME280;54760;47.490;19.030;2024-02-14T07:09:23;100891.72;;;5.15;67.53
67980;BME280;54760;47.490;19.030;2024-02-14T07:11:50;100886.34;;;5.42;66.66
67980;BME280;54760;47.490;19.030;2024-02-14T07:14:16;100895.81;;;5.29;66.89
67980;BME280;54760;47.490;19.030;2024-02-14T07:16:41;100895.81;;;4.83;68.82
67980;BME280;54760;47.490;19.030;2024-02-14T07:19:07;100897.34;;;4.61;69.50
67980;BME280;54760;47.490;19.030;2024-02-14T07:21:32;100901.75;;;5.11;67.12
67980;BME280;54760;47.490;19.030;2024-02-14T07:23:58;100891.63;;;4.89;68.19
67980;BME280;54760;47.490;19.030;2024-02-14T07:26:23;100890.94;;;4.92;68.28
67980;BME280;54760;47.490;19.030;2024-02-14T07:28:49;100880.94;;;4.96;67.77
67980;BME280;54760;47.490;19.030;2024-02-14T07:31:14;100884.66;;;5.34;66.63
67980;BME280;54760;47.490;19.030;2024-02-14T07:33:40;100885.47;;;5.38;66.32
67980;BME280;54760;47.490;19.030;2024-02-14T07:36:06;100883.88;;;5.59;65.96
67980;BME280;54760;47.490;19.030;2024-02-14T07:38:31;100897.31;;;5.75;65.44
67980;BME280;54760;47.490;19.030;2024-02-14T07:40:56;100886.03;;;6.29;63.89
67980;BME280;54760;47.490;19.030;2024-02-14T07:43:22;100885.81;;;7.73;60.53
67980;BME280;54760;47.490;19.030;2024-02-14T07:45:47;100868.38;;;9.67;53.74
67980;BME280;54760;47.490;19.030;2024-02-14T07:48:14;100867.78;;;12.25;46.63
67980;BME280;54760;47.490;19.030;2024-02-14T07:50:39;100867.87;;;13.95;41.59
67980;BME280;54760;47.490;19.030;2024-02-14T07:53:04;100858.38;;;15.55;38.65
67980;BME280;54760;47.490;19.030;2024-02-14T07:55:31;100868.66;;;13.95;40.86
67980;BME280;54760;47.490;19.030;2024-02-14T07:57:57;100863.47;;;15.86;37.04
67980;BME280;54760;47.490;19.030;2024-02-14T08:00:22;100860.72;;;16.27;35.81
67980;BME280;54760;47.490;19.030;2024-02-14T08:02:48;100859.22;;;17.27;34.01
67980;BME280;54760;47.490;19.030;2024-02-14T08:05:14;100859.59;;;17.64;33.53
67980;BME280;54760;47.490;19.030;2024-02-14T08:07:39;100861.88;;;18.74;31.58
67980;BME280;54760;47.490;19.030;2024-02-14T08:10:05;100866.69;;;18.52;31.58
67980;BME280;54760;47.490;19.030;2024-02-14T08:12:30;100866.72;;;17.40;33.43
67980;BME280;54760;47.490;19.030;2024-02-14T08:14:56;100871.22;;;17.93;32.37
67980;BME280;54760;47.490;19.030;2024-02-14T08:17:21;100876.47;;;15.40;36.50
67980;BME280;54760;47.490;19.030;2024-02-14T08:19:47;100878.78;;;14.41;38.61
67980;BME280;54760;47.490;19.030;2024-02-14T08:22:13;100884.19;;;13.62;40.62
67980;BME280;54760;47.490;19.030;2024-02-14T08:24:38;100883.22;;;13.26;41.54
67980;BME280;54760;47.490;19.030;2024-02-14T08:27:04;100883.53;;;12.78;42.79
67980;BME280;54760;47.490;19.030;2024-02-14T08:29:32;100892.91;;;11.86;44.66
67980;BME280;54760;47.490;19.030;2024-02-14T08:31:57;100889.34;;;11.44;45.60
67980;BME280;54760;47.490;19.030;2024-02-14T08:34:23;100888.88;;;11.08;46.62
67980;BME280;54760;47.490;19.030;2024-02-14T08:36:49;100887.34;;;11.00;46.83
67980;BME280;54760;47.490;19.030;2024-02-14T08:39:14;100883.00;;;11.06;46.61
67980;BME280;54760;47.490;19.030;2024-02-14T08:41:40;100883.44;;;11.01;47.02
67980;BME280;54760;47.490;19.030;2024-02-14T08:44:09;100898.75;;;10.01;49.38
67980;BME280;54760;47.490;19.030;2024-02-14T08:46:34;100901.94;;;9.61;50.16
67980;BME280;54760;47.490;19.030;2024-02-14T08:49:01;100898.78;;;9.87;49.00
67980;BME280;54760;47.490;19.030;2024-02-14T08:51:28;100903.44;;;10.04;48.33
67980;BME280;54760;47.490;19.030;2024-02-14T08:53:53;100894.06;;;9.98;47.55
67980;BME280;54760;47.490;19.030;2024-02-14T08:56:21;100896.38;;;10.03;47.97
67980;BME280;54760;47.490;19.030;2024-02-14T08:58:48;100893.72;;;8.97;50.04
67980;BME280;54760;47.490;19.030;2024-02-14T09:01:13;100894.91;;;9.38;47.90
67980;BME280;54760;47.490;19.030;2024-02-14T09:03:39;100882.03;;;9.71;47.26
67980;BME280;54760;47.490;19.030;2024-02-14T09:06:05;100895.69;;;9.81;47.57
67980;BME280;54760;47.490;19.030;2024-02-14T09:08:30;100886.03;;;10.57;46.40
67980;BME280;54760;47.490;19.030;2024-02-14T09:10:56;100873.41;;;10.77;45.25
67980;BME280;54760;47.490;19.030;2024-02-14T09:13:23;100881.47;;;10.36;45.75
67980;BME280;54760;47.490;19.030;2024-02-14T09:15:49;100880.06;;;10.76;45.10
67980;BME280;54760;47.490;19.030;2024-02-14T09:18:16;100875.56;;;10.45;45.55
67980;BME280;54760;47.490;19.030;2024-02-14T09:20:44;100881.25;;;10.78;44.69
67980;BME280;54760;47.490;19.030;2024-02-14T09:23:11;100875.75;;;11.30;43.50
67980;BME280;54760;47.490;19.030;2024-02-14T09:25:37;100879.25;;;11.79;42.39
67980;BME280;54760;47.490;19.030;2024-02-14T09:28:02;100875.75;;;11.34;42.83
67980;BME280;54760;47.490;19.030;2024-02-14T09:30:28;100868.75;;;12.07;42.00
67980;BME280;54760;47.490;19.030;2024-02-14T09:32:53;100872.06;;;12.56;40.90
67980;BME280;54760;47.490;19.030;2024-02-14T09:35:18;100867.72;;;12.85;39.84
67980;BME280;54760;47.490;19.030;2024-02-14T09:37:44;100873.63;;;11.52;40.25
67980;BME280;54760;47.490;19.030;2024-02-14T09:40:09;100875.69;;;11.41;40.87
67980;BME280;54760;47.490;19.030;2024-02-14T09:42:44;100864.31;;;12.17;39.86
67980;BME280;54760;47.490;19.030;2024-02-14T09:45:11;100862.00;;;13.26;37.26
67980;BME280;54760;47.490;19.030;2024-02-14T09:47:37;100853.84;;;16.86;33.02
67980;BME280;54760;47.490;19.030;2024-02-14T09:50:06;100843.09;;;20.00;27.99
67980;BME280;54760;47.490;19.030;2024-02-14T09:52:32;100838.41;;;20.85;25.81
67980;BME280;54760;47.490;19.030;2024-02-14T09:54:58;100832.12;;;22.38;23.80
67980;BME280;54760;47.490;19.030;2024-02-14T09:57:24;100835.47;;;22.57;23.12
67980;BME280;54760;47.490;19.030;2024-02-14T09:59:51;100842.84;;;21.24;25.39
67980;BME280;54760;47.490;19.030;2024-02-14T10:02:19;100836.53;;;23.49;22.57
67980;BME280;54760;47.490;19.030;2024-02-14T10:04:44;100838.62;;;24.89;21.31
67980;BME280;54760;47.490;19.030;2024-02-14T10:07:09;100840.28;;;25.60;20.33
67980;BME280;54760;47.490;19.030;2024-02-14T10:09:41;100844.94;;;23.14;22.36
67980;BME280;54760;47.490;19.030;2024-02-14T10:12:08;100838.59;;;24.00;21.04
67980;BME280;54760;47.490;19.030;2024-02-14T10:14:36;100833.97;;;25.23;19.24
67980;BME280;54760;47.490;19.030;2024-02-14T10:17:03;100834.06;;;25.45;19.24
67980;BME280;54760;47.490;19.030;2024-02-14T10:19:29;100832.50;;;26.37;18.69
67980;BME280;54760;47.490;19.030;2024-02-14T10:21:58;100830.16;;;26.96;17.88
67980;BME280;54760;47.490;19.030;2024-02-14T10:24:26;100826.94;;;27.44;17.05
67980;BME280;54760;47.490;19.030;2024-02-14T10:26:51;100821.19;;;27.67;16.82
67980;BME280;54760;47.490;19.030;2024-02-14T10:29:19;100820.97;;;26.01;17.26
67980;BME280;54760;47.490;19.030;2024-02-14T10:31:45;100836.00;;;23.71;19.02
67980;BME280;54760;47.490;19.030;2024-02-14T10:34:11;100826.25;;;25.66;18.22
67980;BME280;54760;47.490;19.030;2024-02-14T10:36:37;100822.47;;;25.74;17.89
67980;BME280;54760;47.490;19.030;2024-02-14T10:39:05;100817.91;;;26.05;18.11
67980;BME280;54760;47.490;19.030;2024-02-14T10:41:33;100817.66;;;25.92;17.84
67980;BME280;54760;47.490;19.030;2024-02-14T10:44:04;100814.38;;;26.88;16.94
67980;BME280;54760;47.490;19.030;2024-02-14T10:46:33;100812.75;;;27.09;16.91
67980;BME280;54760;47.490;19.030;2024-02-14T10:49:03;100814.59;;;25.90;17.54
67980;BME280;54760;47.490;19.030;2024-02-14T10:51:31;100823.25;;;22.10;20.78
67980;BME280;54760;47.490;19.030;2024-02-14T10:53:58;100811.62;;;22.41;21.27
67980;BME280;54760;47.490;19.030;2024-02-14T10:56:28;100807.72;;;24.41;19.64
67980;BME280;54760;47.490;19.030;2024-02-14T10:58:56;100795.81;;;25.42;18.46
67980;BME280;54760;47.490;19.030;2024-02-14T11:01:29;100803.63;;;25.16;18.75
67980;BME280;54760;47.490;19.030;2024-02-14T11:03:59;100795.19;;;25.75;18.14
67980;BME280;54760;47.490;19.030;2024-02-14T11:06:24;100802.06;;;25.68;17.86
67980;BME280;54760;47.490;19.030;2024-02-14T11:08:57;100803.53;;;21.46;22.10
67980;BME280;54760;47.490;19.030;2024-02-14T11:11:22;100803.28;;;21.58;21.90
67980;BME280;54760;47.490;19.030;2024-02-14T11:13:53;100794.19;;;21.34;22.76
67980;BME280;54760;47.490;19.030;2024-02-14T11:16:18;100800.56;;;22.17;22.46
67980;BME280;54760;47.490;19.030;2024-02-14T11:18:47;100791.88;;;23.14;21.52
67980;BME280;54760;47.490;19.030;2024-02-14T11:21:17;100788.94;;;23.44;21.44
67980;BME280;54760;47.490;19.030;2024-02-14T11:23:52;100786.78;;;24.31;20.41
67980;BME280;54760;47.490;19.030;2024-02-14T11:26:18;100796.31;;;23.21;21.64
67980;BME280;54760;47.490;19.030;2024-02-14T11:28:43;100792.78;;;24.49;20.71
67980;BME280;54760;47.490;19.030;2024-02-14T11:31:10;100792.87;;;23.52;21.50
67980;BME280;54760;47.490;19.030;2024-02-14T11:33:36;100780.75;;;24.80;20.33
67980;BME280;54760;47.490;19.030;2024-02-14T11:36:08;100772.09;;;24.78;20.50
67980;BME280;54760;47.490;19.030;2024-02-14T11:38:36;100768.25;;;25.24;19.61
67980;BME280;54760;47.490;19.030;2024-02-14T11:41:02;100773.94;;;25.46;19.50
67980;BME280;54760;47.490;19.030;2024-02-14T11:43:29;100785.25;;;23.32;21.10
67980;BME280;54760;47.490;19.030;2024-02-14T11:45:54;100761.78;;;24.53;20.48
67980;BME280;54760;47.490;19.030;2024-02-14T11:48:20;100767.00;;;24.08;20.35
67980;BME280;54760;47.490;19.030;2024-02-14T11:50:47;100761.44;;;24.82;19.81
67980;BME280;54760;47.490;19.030;2024-02-14T11:53:14;100754.69;;;25.93;18.13
67980;BME280;54760;47.490;19.030;2024-02-14T11:55:44;100764.66;;;22.89;20.78
67980;BME280;54760;47.490;19.030;2024-02-14T11:58:12;100766.91;;;20.34;22.74
67980;BME280;54760;47.490;19.030;2024-02-14T12:00:45;100765.00;;;22.27;21.13
67980;BME280;54760;47.490;19.030;2024-02-14T12:03:13;100746.34;;;24.32;19.66
67980;BME280;54760;47.490;19.030;2024-02-14T12:05:38;100756.28;;;25.23;18.55
67980;BME280;54760;47.490;19.030;2024-02-14T12:08:06;100756.19;;;25.60;17.73
67980;BME280;54760;47.490;19.030;2024-02-14T12:10:32;100759.63;;;21.94;21.26
67980;BME280;54760;47.490;19.030;2024-02-14T12:12:58;100758.03;;;20.77;22.73
67980;BME280;54760;47.490;19.030;2024-02-14T12:15:26;100767.88;;;20.31;22.57
67980;BME280;54760;47.490;19.030;2024-02-14T12:17:54;100762.41;;;19.85;22.91
67980;BME280;54760;47.490;19.030;2024-02-14T12:20:22;100771.31;;;18.89;23.92
67980;BME280;54760;47.490;19.030;2024-02-14T12:22:51;100775.66;;;18.19;25.59
67980;BME280;54760;47.490;19.030;2024-02-14T12:25:16;100769.37;;;18.28;24.97
67980;BME280;54760;47.490;19.030;2024-02-14T12:27:42;100769.47;;;17.50;26.65
67980;BME280;54760;47.490;19.030;2024-02-14T12:30:07;100770.69;;;18.14;25.78
67980;BME280;54760;47.490;19.030;2024-02-14T12:32:33;100776.69;;;17.13;27.32
67980;BME280;54760;47.490;19.030;2024-02-14T12:34:59;100769.19;;;17.01;27.23
67980;BME280;54760;47.490;19.030;2024-02-14T12:37:25;100761.00;;;17.10;27.69
67980;BME280;54760;47.490;19.030;2024-02-14T12:39:50;100762.59;;;16.35;29.10